x

West Dixon Entrance (46205) Wave Buoy

3:00pm - Mon 31st Aug 2015 All times are PDT. -7 hours from GMT.

  • Sig Wave height 12.5ft
  • Peak Period 11s
  • Wind
    20mph, 25mph gusts
  • Sea Temp 60°f
  • Air Temp 56°f
  • Sea Pressure 1000.8mb
  • West Dixon Entrance
  • West Dixon Entrance

More Historic Weather Station data

Upgrade to MSW Pro to gain access to the past 30 days of data for over 8000 Wavebouys and Weather Stations around the globe.

Join Pro

Comparision Forecast

View Surf forecast
   
Mon 08/31 3:00pm 12.5ft 11s 20 25 mph 1000.8mb 60f 56f
2:00pm 12ft 12s 20 25 mph 1000.8mb 60f 56f
1:00pm 12.5ft 12s 18 25 mph 1000.9mb 60f 56f
12:00pm 12ft 11s 18 25 mph 1000.7mb 60f 56f
11:00am 12ft 12s 18 22 mph 1000.6mb 60f 56f
10:00am 12ft 12s 16 22 mph 1000.7mb 60f 55f
9:00am 13ft 11s 16 22 mph 1000.3mb 60f 56f
8:00am 13ft 12s 18 22 mph 1000mb 60f 56f
7:00am 14ft 12s 22 27 mph 999.4mb 60f 56f
6:00am 13.5ft 11s 22 27 mph 999mb 60f 55f
5:00am 14ft 12s 20 27 mph 998.7mb 60f 56f
4:00am 14ft 11s 18 22 mph 998.3mb 60f 54f
3:00am 14ft 10s 25 38 mph 997.8mb 60f 53f
2:00am 13.5ft 10s 27 31 mph 997.1mb 60f 56f
1:00am 13.5ft 10s 25 31 mph 996.5mb 60f 56f
12:00am 12.5ft 10s 27 34 mph 996.2mb 60f 55f
Sun 08/30 11:00pm 12ft 10s 25 31 mph 995.8mb 60f 56f
10:00pm 12.5ft 10s 31 43 mph 995.1mb 60f 55f
9:00pm 12.5ft 9s 27 36 mph 994.7mb 60f 55f
8:00pm 11ft 10s 29 34 mph 993.7mb 60f 57f
7:00pm 10.5ft 7s 25 31 mph 993.1mb 60f 57f
6:00pm 10ft 7s 27 34 mph 992.4mb 60f 57f
5:00pm 10ft 8s 27 31 mph 991.6mb 60f 58f
4:00pm 11ft 9s 27 31 mph 990.8mb 60f 58f
3:00pm 10ft 8s 27 31 mph 989.6mb 60f 56f
2:00pm 10.5ft 7s 22 29 mph 988.8mb 60f 57f
1:00pm 10.5ft 7s 27 31 mph 987.9mb 60f 58f
12:00pm 10ft 7s 27 34 mph 986.9mb 60f 58f
11:00am 11ft 7s 25 29 mph 986.2mb 60f 58f
10:00am 11ft 7s 27 34 mph 986mb 60f 58f
9:00am 11ft 7s 27 34 mph 986.2mb 60f 58f
8:00am 10ft 6s 34 40 mph 986.6mb 60f 56f
7:00am 9ft 10s 31 38 mph 988.4mb 60f 55f
6:00am 9ft 11s 27 34 mph 990mb 60f 56f
5:00am 9ft 16s 25 31 mph 990.9mb 60f 58f
4:00am 8.5ft 10s 22 29 mph 991.6mb 60f 58f
3:00am 9ft 10s 22 27 mph 992.2mb 60f 58f
2:00am 9ft 11s 22 29 mph 992.3mb 60f 58f
1:00am 9ft 10s 22 27 mph 992.2mb 60f 58f
12:00am 8ft 10s 22 27 mph 992mb 60f 58f
Sat 08/29 11:00pm 9ft 11s 20 27 mph 991.9mb 60f 56f
10:00pm 8ft 17s 16 22 mph 991.8mb 60f 56f
9:00pm 8ft 11s 18 22 mph 991.2mb 60f 58f
8:00pm 9ft 17s 18 22 mph 991mb 60f 58f
7:00pm 9ft 17s 16 18 mph 990.9mb 60f 58f
6:00pm 9ft 11s 13 18 mph 990.8mb 60f 58f
5:00pm 9.5ft 17s 13 16 mph 990.5mb 61f 59f
4:00pm 9ft 11s 11 16 mph 990.2mb 61f 58f
3:00pm 9ft 11s 11 13 mph 989.9mb 61f 58f
2:00pm 10ft 12s 7 9 mph 989.9mb 60f 58f
1:00pm 9.5ft 11s 9 11 mph 989.6mb 60f 59f
12:00pm 10ft 12s 9 11 mph 989.6mb 60f 59f
11:00am 10.5ft 12s 9 13 mph 989.8mb 60f 59f
10:00am 10ft 11s 9 11 mph 990.1mb 60f 59f
9:00am 10.5ft 13s 11 13 mph 990.4mb 60f 58f
8:00am 10.5ft 11s 11 13 mph 990.8mb 60f 58f
7:00am 9ft 12s 11 13 mph 991.5mb 60f 58f
6:00am 9.5ft 12s 11 13 mph 991.6mb 60f 58f
5:00am 9ft 11s 11 13 mph 991.9mb 60f 58f
4:00am 9ft 10s 13 16 mph 992.5mb 60f 58f
3:00am 9ft 12s 13 18 mph 993mb 60f 58f
2:00am 10.5ft 12s 13 18 mph 993.4mb 60f 58f
1:00am 9.5ft 12s 13 16 mph 993.9mb 60f 58f
12:00am 9.5ft 8s 13 16 mph 994.3mb 60f 58f
Fri 08/28 11:00pm 9.5ft 11s 13 16 mph 994.8mb 60f 58f
10:00pm 8.5ft 11s 13 18 mph 995mb 60f 58f
9:00pm 8ft 7s 16 18 mph 995mb 60f 58f
8:00pm 7.5ft 8s 16 18 mph 994.9mb 60f 58f
7:00pm 7ft 7s 18 20 mph 994.8mb 60f 58f
6:00pm 7ft 7s 18 22 mph 994.8mb 60f 58f
5:00pm 7.5ft 7s 18 20 mph 994.8mb 60f 59f
4:00pm 7ft 7s 16 18 mph 994.8mb 60f 59f
3:00pm 7ft 7s 13 16 mph 994.7mb 60f 59f
2:00pm 7ft 7s 16 18 mph 994.4mb 60f 58f
1:00pm 7ft 7s 13 18 mph 994.3mb 60f 57f
12:00pm 7ft 7s 11 16 mph 994mb 60f 57f
11:00am 7ft 7s 16 18 mph 993.8mb 60f 57f
10:00am 8.5ft 7s 18 25 mph 993.8mb 60f 56f
9:00am 9ft 7s 18 20 mph 993.6mb 60f 56f
8:00am 10ft 7s 25 29 mph 993.5mb 60f 57f
7:00am 10ft 7s 22 27 mph 994mb 60f 58f
6:00am 9.5ft 6s 27 34 mph 994.9mb 60f 58f
5:00am 8ft 7s 27 36 mph 996.2mb 60f 58f
4:00am 8ft 7s 29 36 mph 997.6mb 60f 58f
3:00am 7ft 7s 29 36 mph 999.3mb 60f 58f
2:00am 7ft 7s 27 36 mph 1000.9mb 61f 58f
1:00am 6ft 6s 27 31 mph 1002mb 61f 59f
12:00am 5.5ft 5s 22 27 mph 1003.2mb 61f 59f